Latest Weather Observations for Davis*

IDT60801

Issued at 1:01 pm EDT Wednesday 16 October 2019 (issued every 10 minutes, with the page automatically refreshed every 10 minutes)

About weather observations | Map of weather stations | Latest weather observations for ANT | Other Formats
Station Details ID: 300000 Name: DAVIS Lat: -68.57 Lon: 77.97 Height: 18.0 m
Data from the previous 72 hours. | See also: Recent months at Davis*
Date/Time
EDT
Temp
°C
App
Temp
°C
Dew
Point
°C
Rel
Hum
%
Delta-T
°C
Wind Press
QNH
hPa
Press
MSL
hPa
Rain since
9am
mm
Dir  Spd
km/h
Gust
km/h
Spd
kts
Gust
kts
16/01:00pm -19.3 -24.8 -26.8 51 - E 9 11 5 6 995.8 - -
16/12:30pm -19.9 -25.4 -27.8 49 - ESE 9 13 5 7 995.2 - -
16/12:00pm -23.0 -28.1 -29.1 57 - ENE 7 13 4 7 995.3 - -
16/11:30am -21.6 -28.6 -27.2 61 - ESE 17 19 9 10 994.7 - -
16/11:00am -21.7 -28.7 -27.2 61 - ESE 17 22 9 12 994.4 994.7 -
16/10:30am -21.8 -30.1 -27.6 59 - SE 24 28 13 15 994.1 - -
16/10:00am -21.7 -29.7 -27.9 57 - SE 22 28 12 15 993.6 - -
16/09:30am -22.1 -30.8 -27.0 64 - SE 26 35 14 19 993.5 - -
16/09:00am -22.0 -32.8 -27.4 62 - SE 37 44 20 24 993.1 - -
16/08:30am -22.1 -32.1 -27.0 64 - SE 33 44 18 24 993.2 - -
16/08:00am -21.9 -31.8 -26.8 64 - SSE 32 43 17 23 993.5 993.8 -
16/07:30am -21.7 -31.6 -27.0 62 - SSE 32 44 17 24 993.2 - -
16/07:00am -21.7 -32.1 -26.6 64 - SSE 35 46 19 25 992.7 - -
16/06:30am -21.5 -31.0 -26.8 62 - SSE 30 39 16 21 992.6 - -
16/06:00am -21.2 -31.1 -26.7 61 - SSE 32 44 17 24 992.0 - -
16/05:30am -21.0 -30.9 -27.0 58 - SE 32 41 17 22 991.7 - -
16/05:00am -21.2 -29.5 -27.2 58 - SE 24 30 13 16 991.9 992.2 -
16/04:30am -21.0 -30.1 -27.4 56 - SE 28 37 15 20 991.4 - -
16/04:00am -20.7 -28.7 -27.9 52 - SE 22 26 12 14 991.8 - -
16/03:30am -20.3 -27.3 -28.0 50 - SE 17 20 9 11 991.9 - -
16/03:00am -19.9 -27.3 -27.6 50 - SE 19 24 10 13 991.6 - -
16/02:30am -19.1 -25.7 -25.8 55 - SSE 15 17 8 9 991.5 - -
16/02:00am -19.5 -25.7 -26.4 54 - S 13 17 7 9 991.4 991.7 -
16/01:30am -18.9 -25.5 -25.1 58 - S 15 17 8 9 991.4 - -
16/01:00am -18.6 -24.4 -24.4 60 - S 11 15 6 8 991.5 - -
16/12:30am -18.9 -25.8 -24.1 63 - SSW 17 20 9 11 991.2 - -
16/12:00am -18.8 -25.4 -24.4 61 - SW 15 17 8 9 991.3 - -
 
Date/Time
EDT
Temp
°C
App
Temp
°C
Dew
Point
°C
Rel
Hum
%
Delta-T
°C
Wind Press
QNH
hPa
Press
MSL
hPa
Rain since
9am
mm
Dir  Spd
km/h
Gust
km/h
Spd
kts
Gust
kts
15/11:30pm -18.2 -25.1 -23.8 61 - SSW 17 19 9 10 991.3 - -
15/11:00pm -17.6 -24.1 -23.1 62 - SSW 15 19 8 10 991.2 991.5 -
15/10:30pm -17.6 -24.5 -22.7 64 - SSW 17 20 9 11 991.3 - -
15/10:00pm -17.7 -25.0 -22.5 66 - SSW 19 24 10 13 991.2 - -
15/09:30pm -17.9 -25.8 -23.4 62 - SSW 22 26 12 14 991.1 - -
15/09:00pm -17.8 -25.3 -23.1 63 - SSW 20 24 11 13 991.1 - -
15/08:30pm -17.7 -25.0 -23.2 62 - SW 19 24 10 13 991.1 - -
15/08:00pm -17.6 -24.5 -22.9 63 - SW 17 20 9 11 991.2 991.5 -
15/07:30pm -17.7 -24.6 -22.7 65 - SW 17 22 9 12 991.2 - -
15/07:00pm -17.7 -24.6 -22.1 68 - SW 17 20 9 11 991.2 - -
15/06:30pm -17.9 -25.2 -21.9 71 - SW 19 24 10 13 991.4 - -
15/06:00pm -18.1 -25.0 -21.3 76 - SW 17 22 9 12 991.4 - -
15/05:30pm -18.3 -25.7 -21.5 76 - WSW 20 22 11 12 991.5 - -
15/05:00pm -18.6 -25.1 -21.8 76 - WSW 15 17 8 9 991.6 991.9 -
15/04:30pm -18.9 -25.8 -22.0 76 - WSW 17 20 9 11 991.9 - -
15/04:00pm -19.0 -25.5 -21.9 78 - SW 15 20 8 11 992.2 - -
15/03:43pm -19.2 -25.7 -22.2 77 - SW 15 20 8 11 992.1 - -
15/03:30pm -19.2 -26.5 -22.2 77 - SSW 19 22 10 12 992.2 - -
15/03:00pm -19.1 -25.2 -21.8 79 - W 13 20 7 11 992.8 - -
15/02:30pm -19.9 -26.1 -23.5 73 - W 13 15 7 8 992.8 - -
15/02:05pm -20.4 -25.5 -25.2 65 - SSW 7 11 4 6 992.9 - -
15/02:00pm -20.2 -25.6 -25.0 65 - S 9 11 5 6 992.9 993.2 -
15/01:30pm -21.0 -27.2 -25.6 66 - SE 13 17 7 9 993.0 - -
15/01:00pm -21.3 -28.7 -25.8 67 - SE 19 22 10 12 993.1 - -
15/12:30pm -21.8 -30.9 -26.1 68 - SE 28 33 15 18 992.8 - -
15/12:00pm -22.5 -30.8 -26.4 70 - SE 24 33 13 18 993.2 - -
15/11:30am -23.0 -30.0 -26.6 72 - SSE 17 24 9 13 993.5 - -
15/11:00am -23.3 -29.2 -26.2 77 - SSE 11 15 6 8 993.7 994.0 -
15/10:30am -23.0 -29.2 -25.5 80 - SSE 13 17 7 9 993.8 - -
15/10:00am -23.3 -30.3 -26.0 78 - SW 17 20 9 11 993.8 - -
15/09:39am -22.5 -28.7 -25.0 80 - SW 13 17 7 9 994.2 - -
15/09:30am -22.5 -29.1 -24.8 81 - SSW 15 17 8 9 994.2 - -
15/09:00am -22.7 -28.5 -25.0 81 - SW 11 15 6 8 994.3 - -
15/08:30am -23.1 -30.1 -25.3 82 - WSW 17 20 9 11 994.3 - -
15/08:00am -23.6 -31.0 -25.9 81 - WSW 19 20 10 11 994.5 994.8 -
15/07:30am -23.9 -30.5 -26.4 80 - WSW 15 17 8 9 994.7 - -
15/07:00am -23.1 -30.6 -25.4 81 - WSW 20 22 11 12 994.8 - -
15/06:30am -23.2 -30.2 -25.7 80 - WSW 17 20 9 11 994.9 - -
15/06:00am -22.8 -30.2 -25.3 80 - WSW 19 22 10 12 995.2 - -
15/05:57am -22.8 -30.3 -25.3 80 - WSW 20 22 11 12 995.3 - -
15/05:30am -21.8 -29.7 -24.2 81 - WSW 22 26 12 14 995.5 - -
15/05:00am -21.2 -29.5 -23.6 81 - WSW 24 28 13 15 995.7 996.0 -
15/04:30am -20.3 -28.9 -22.6 82 - WSW 26 32 14 17 995.7 - -
15/04:06am -19.6 -28.6 -21.7 83 - W 28 33 15 18 995.7 - -
15/04:00am -19.3 -27.9 -21.4 83 - W 26 33 14 18 995.7 - -
15/03:30am -19.7 -26.6 -21.7 84 - W 17 22 9 12 995.9 - -
15/03:00am -20.0 -27.5 -22.0 84 - WSW 20 24 11 13 996.2 - -
15/02:30am -19.8 -27.2 -21.8 84 - WSW 20 24 11 13 996.4 - -
15/02:00am -20.5 -27.4 -22.5 84 - W 17 20 9 11 996.6 996.9 -
15/01:30am -20.7 -27.6 -22.8 83 - WSW 17 22 9 12 996.7 - -
15/01:00am -20.3 -27.6 -22.4 83 - WSW 19 22 10 12 997.0 - -
15/12:37am -20.4 -27.7 -22.7 82 - WSW 19 22 10 12 997.1 - -
15/12:30am -20.3 -27.8 -22.6 82 - WSW 20 22 11 12 997.2 - -
15/12:00am -20.2 -27.5 -22.5 82 - WSW 19 22 10 12 997.5 - -
 
Date/Time
EDT
Temp
°C
App
Temp
°C
Dew
Point
°C
Rel
Hum
%
Delta-T
°C
Wind Press
QNH
hPa
Press
MSL
hPa
Rain since
9am
mm
Dir  Spd
km/h
Gust
km/h
Spd
kts
Gust
kts
14/11:30pm -20.1 -27.4 -22.4 82 - SW 19 26 10 14 997.6 - -
14/11:00pm -20.0 -28.2 -22.3 82 - WSW 24 30 13 16 997.7 998.0 -
14/10:30pm -19.7 -28.7 -22.0 82 - WSW 28 32 15 17 997.7 - -
14/10:00pm -19.2 -28.9 -21.5 82 - WSW 32 35 17 19 998.1 - -
14/09:30pm -18.8 -28.5 -20.9 83 - WSW 32 37 17 20 998.1 - -
14/09:00pm -18.6 -28.9 -20.9 82 - WSW 35 39 19 21 997.9 - -
14/08:59pm -18.5 -28.8 -20.8 82 - WSW 35 39 19 21 997.9 - -
14/08:30pm -18.2 -28.4 -20.4 83 - WSW 35 39 19 21 997.9 - -
14/08:00pm -17.9 -28.1 -19.9 84 - WSW 35 39 19 21 997.8 998.1 -
14/07:30pm -17.6 -27.4 -19.6 84 - WSW 33 39 18 21 997.7 - -
14/07:25pm -17.5 -27.3 -19.5 84 - WSW 33 39 18 21 997.7 - -
14/07:00pm -17.2 -27.0 -19.2 84 - WSW 33 39 18 21 997.7 - -
14/06:30pm -17.0 -27.2 -18.9 85 - WSW 35 41 19 22 997.7 - -
14/06:00pm -16.8 -26.6 -18.8 84 - W 33 41 18 22 997.7 - -
14/05:54pm -16.5 -25.4 -18.7 83 - WSW 28 39 15 21 997.6 - -
14/05:30pm -15.4 -21.4 -19.4 71 - W 13 17 7 9 997.8 - -
14/05:00pm -15.3 -20.6 -19.2 72 - S 9 13 5 7 997.7 998.0 -
14/04:30pm -15.4 -22.5 -17.9 81 - SW 19 24 10 13 997.7 - -
14/04:23pm -15.4 -24.6 -17.9 81 - W 30 32 16 17 997.7 - -
14/04:00pm -15.5 -20.7 -18.6 77 - WSW 9 11 5 6 998.1 - -
14/03:30pm -15.8 -21.4 -19.2 75 - WSW 11 13 6 7 998.3 - -
14/03:00pm -16.1 -22.5 -19.2 77 - WSW 15 17 8 9 998.2 - -
14/02:30pm -15.7 -23.0 -18.5 79 - WSW 20 26 11 14 998.4 - -
14/02:00pm -15.9 -24.0 -18.4 81 - W 24 28 13 15 998.4 998.6 -
14/01:30pm -17.3 -22.6 -21.1 72 - NNE 9 13 5 7 998.8 - -
14/01:00pm -17.5 -22.9 -21.8 69 - ENE 9 13 5 7 998.7 - -
14/12:30pm -18.2 -24.0 -23.0 66 - NE 11 11 6 6 998.8 - -
14/12:00pm -18.8 -24.6 -23.9 64 - NE 11 13 6 7 999.0 - -
14/11:30am -19.4 -25.2 -24.5 64 - NE 11 13 6 7 999.1 - -
14/11:00am -19.5 -25.3 -24.7 63 - NE 11 11 6 6 999.2 999.4 -
14/10:30am -19.4 -24.8 -24.1 66 - NE 9 11 5 6 999.3 - -
14/10:00am -19.5 -24.9 -25.1 61 - NE 9 9 5 5 999.3 - -
14/09:30am -18.6 -23.6 -24.0 62 - ENE 7 9 4 5 999.3 - -
14/09:00am -19.1 -24.1 -24.2 64 - E 7 9 4 5 999.3 - -
14/08:30am -18.8 -22.9 -24.1 63 - N 2 7 1 4 999.4 - -
14/08:00am -18.4 -22.1 -23.5 64 - CALM 0 0 0 0 999.5 999.7 -
14/07:30am -18.2 -21.9 -23.0 66 - CALM 0 0 0 0 999.4 - -
14/07:00am -17.8 -21.5 -22.9 64 - CALM 0 0 0 0 999.3 - -
14/06:30am -17.6 -21.3 -22.9 63 - CALM 0 0 0 0 999.4 - -
14/06:00am -17.3 -21.0 -22.4 64 - CALM 0 0 0 0 999.5 - -
14/05:30am -17.3 -21.0 -22.6 63 - CALM 0 0 0 0 999.6 - -
14/05:00am -17.2 -20.9 -22.5 63 - CALM 0 0 0 0 999.6 999.8 -
14/04:30am -17.1 -20.8 -22.3 64 - CALM 0 0 0 0 999.6 - -
14/04:00am -17.1 -20.8 -22.3 64 - CALM 0 0 0 0 999.8 - -
14/03:30am -17.2 -21.6 -22.2 65 - NNE 4 6 2 3 999.8 - -
14/03:00am -17.1 -21.9 -22.1 65 - NNE 6 7 3 4 999.9 - -
14/02:30am -17.0 -21.8 -21.8 66 - NNE 6 7 3 4 999.9 - -
14/02:00am -17.1 -21.9 -21.9 66 - NNE 6 7 3 4 999.9 1000.1 -
14/01:30am -17.0 -21.4 -22.0 65 - NNE 4 6 2 3 999.9 - -
14/01:00am -16.9 -21.7 -22.2 63 - NNE 6 7 3 4 999.8 - -
14/12:30am -16.9 -21.9 -22.2 63 - NNE 7 9 4 5 999.7 - -
14/12:00am -16.9 -22.3 -22.6 61 - NNE 9 11 5 6 999.7 - -
 
Date/Time
EDT
Temp
°C
App
Temp
°C
Dew
Point
°C
Rel
Hum
%
Delta-T
°C
Wind Press
QNH
hPa
Press
MSL
hPa
Rain since
9am
mm
Dir  Spd
km/h
Gust
km/h
Spd
kts
Gust
kts
13/11:30pm -16.8 -22.2 -22.9 59 - N 9 11 5 6 999.8 - -
13/11:00pm -16.6 -22.0 -23.5 55 - NNE 9 11 5 6 999.9 1000.1 -
13/10:30pm -16.2 -22.3 -22.9 56 - NNE 13 15 7 8 999.9 - -
13/10:00pm -16.2 -22.0 -23.1 55 - NNE 11 13 6 7 999.7 - -
13/09:30pm -16.1 -22.3 -23.2 54 - NNE 13 15 7 8 999.5 - -
13/09:00pm -16.3 -22.8 -23.4 54 - NNE 15 17 8 9 999.4 - -
13/08:30pm -16.0 -22.9 -23.5 52 - NNE 17 19 9 10 999.3 - -
13/08:00pm -16.1 -22.7 -23.9 51 - NNE 15 19 8 10 999.2 999.4 -
13/07:30pm -16.3 -22.8 -23.6 53 - NNE 15 17 8 9 999.2 - -
13/07:00pm -16.4 -23.3 -23.9 52 - NNE 17 19 9 10 999.1 - -
13/06:30pm -16.1 -23.0 -23.6 52 - NNE 17 20 9 11 998.9 - -
13/06:00pm -15.8 -23.1 -23.4 52 - NNE 19 22 10 12 998.7 - -
13/05:30pm -16.2 -23.7 -24.4 49 - NNE 20 24 11 13 998.6 - -

Other formats

Comma delimited format used in spreadsheet applications
http://www.bom.gov.au/fwo/IDT60803/IDT60803.89571.axf

JavaScript Object Notation format (JSON) in row-major order
http://www.bom.gov.au/fwo/IDT60803/IDT60803.89571.json

Data quality

Most of these data are generated automatically and are frequently updated. Quality checks on data are not normally performed. It is possible for incorrect values to appear. Refer to information at About Latest Weather Observations and please check the disclaimer before using these data.